Randolph, Missouri
Current Conditions -  °F | °C
As of 5:54 PM on Thursday 27 Nov 2014 (Local Time) from KMKC Reporting Station
Clear Clear  
Wind Chill: 26°   Ceiling: Unl
Heat Index: 34°   Visibility: 10mi
Dew Point: 23°   Wind: 10mph
Humidity: 64%   Direction: 90°E
Pressure: 30.36"   Gusts: NA
Location:  39.1628°N, 94.4478°W
Report Text: KMKC 272354Z 09009KT 10SM CLR 01/M05 A3036 RMK AO2 SLP286 T00111050 10033 20000 56023
Loading
Personal Weather Stations






























Interactive Weather Map New forecast layout! Learn more

10-Day Weather Forecast

Advertisements
Track Severe Weather on mobile